sensor_id;sensor_type;location;lat;lon;timestamp;temperature;humidity
13251;DHT22;6692;50.710;7.180;2024-03-02T00:01:23;8.70;99.90
13251;DHT22;6692;50.710;7.180;2024-03-02T00:03:24;8.80;99.90
13251;DHT22;6692;50.710;7.180;2024-03-02T00:05:25;8.90;99.90
13251;DHT22;6692;50.710;7.180;2024-03-02T00:07:26;8.90;99.90
13251;DHT22;6692;50.710;7.180;2024-03-02T00:09:27;9.00;99.90
13251;DHT22;6692;50.710;7.180;2024-03-02T00:11:27;9.00;99.90
13251;DHT22;6692;50.710;7.180;2024-03-02T00:13:28;9.00;99.90
13251;DHT22;6692;50.710;7.180;2024-03-02T00:15:46;9.10;99.90
13251;DHT22;6692;50.710;7.180;2024-03-02T00:17:46;9.10;99.90
13251;DHT22;6692;50.710;7.180;2024-03-02T00:19:47;9.20;99.90
13251;DHT22;6692;50.710;7.180;2024-03-02T00:21:47;9.20;99.90
13251;DHT22;6692;50.710;7.180;2024-03-02T00:23:48;9.20;99.90
13251;DHT22;6692;50.710;7.180;2024-03-02T00:25:51;9.30;99.90
13251;DHT22;6692;50.710;7.180;2024-03-02T00:27:50;9.30;99.90
13251;DHT22;6692;50.710;7.180;2024-03-02T00:29:51;9.30;99.90
13251;DHT22;6692;50.710;7.180;2024-03-02T00:31:52;9.30;99.90
13251;DHT22;6692;50.710;7.180;2024-03-02T00:33:52;9.30;99.90
13251;DHT22;6692;50.710;7.180;2024-03-02T00:35:53;9.40;99.90
13251;DHT22;6692;50.710;7.180;2024-03-02T00:37:54;9.40;99.90
13251;DHT22;6692;50.710;7.180;2024-03-02T00:39:54;9.40;99.90
13251;DHT22;6692;50.710;7.180;2024-03-02T00:41:55;9.40;99.90
13251;DHT22;6692;50.710;7.180;2024-03-02T00:44:02;9.40;99.90
13251;DHT22;6692;50.710;7.180;2024-03-02T00:46:02;9.40;99.90
13251;DHT22;6692;50.710;7.180;2024-03-02T00:48:04;9.30;99.90
13251;DHT22;6692;50.710;7.180;2024-03-02T00:50:05;9.20;99.90
13251;DHT22;6692;50.710;7.180;2024-03-02T00:52:06;9.20;99.90
13251;DHT22;6692;50.710;7.180;2024-03-02T00:54:07;9.20;99.90
13251;DHT22;6692;50.710;7.180;2024-03-02T00:56:09;9.20;99.90
13251;DHT22;6692;50.710;7.180;2024-03-02T00:58:08;9.20;99.90
13251;DHT22;6692;50.710;7.180;2024-03-02T01:00:10;9.10;99.90
13251;DHT22;6692;50.710;7.180;2024-03-02T01:02:11;9.00;99.90
13251;DHT22;6692;50.710;7.180;2024-03-02T01:04:11;8.90;99.90
13251;DHT22;6692;50.710;7.180;2024-03-02T01:06:12;8.90;99.90
13251;DHT22;6692;50.710;7.180;2024-03-02T01:08:13;8.80;99.90
13251;DHT22;6692;50.710;7.180;2024-03-02T01:10:14;8.80;99.90
13251;DHT22;6692;50.710;7.180;2024-03-02T01:12:14;8.70;99.90
13251;DHT22;6692;50.710;7.180;2024-03-02T01:14:15;8.70;99.90
13251;DHT22;6692;50.710;7.180;2024-03-02T01:16:16;8.70;99.90
13251;DHT22;6692;50.710;7.180;2024-03-02T01:18:17;8.60;99.90
13251;DHT22;6692;50.710;7.180;2024-03-02T01:20:18;8.60;99.90
13251;DHT22;6692;50.710;7.180;2024-03-02T01:22:18;8.50;99.90
13251;DHT22;6692;50.710;7.180;2024-03-02T01:24:19;8.50;99.90
13251;DHT22;6692;50.710;7.180;2024-03-02T01:26:20;8.50;99.90
13251;DHT22;6692;50.710;7.180;2024-03-02T01:28:20;8.50;99.90
13251;DHT22;6692;50.710;7.180;2024-03-02T01:30:23;8.50;99.90
13251;DHT22;6692;50.710;7.180;2024-03-02T01:32:24;8.50;99.90
13251;DHT22;6692;50.710;7.180;2024-03-02T01:34:24;8.50;99.90
13251;DHT22;6692;50.710;7.180;2024-03-02T01:36:25;8.50;99.90
13251;DHT22;6692;50.710;7.180;2024-03-02T01:38:26;8.50;99.90
13251;DHT22;6692;50.710;7.180;2024-03-02T01:40:27;8.50;99.90
13251;DHT22;6692;50.710;7.180;2024-03-02T01:42:27;8.50;99.90
13251;DHT22;6692;50.710;7.180;2024-03-02T01:44:28;8.50;99.90
13251;DHT22;6692;50.710;7.180;2024-03-02T01:46:29;8.50;99.90
13251;DHT22;6692;50.710;7.180;2024-03-02T01:48:29;8.50;99.90
13251;DHT22;6692;50.710;7.180;2024-03-02T01:50:31;8.50;99.90
13251;DHT22;6692;50.710;7.180;2024-03-02T01:52:32;8.50;99.90
13251;DHT22;6692;50.710;7.180;2024-03-02T01:54:32;8.50;99.90
13251;DHT22;6692;50.710;7.180;2024-03-02T01:56:33;8.50;99.90
13251;DHT22;6692;50.710;7.180;2024-03-02T01:58:34;8.50;99.90
13251;DHT22;6692;50.710;7.180;2024-03-02T02:00:34;8.40;99.90
13251;DHT22;6692;50.710;7.180;2024-03-02T02:02:35;8.40;99.90
13251;DHT22;6692;50.710;7.180;2024-03-02T02:04:36;8.40;99.90
13251;DHT22;6692;50.710;7.180;2024-03-02T02:06:37;8.30;99.90
13251;DHT22;6692;50.710;7.180;2024-03-02T02:08:38;8.30;99.90
13251;DHT22;6692;50.710;7.180;2024-03-02T02:10:38;8.30;99.90
13251;DHT22;6692;50.710;7.180;2024-03-02T02:12:39;8.30;99.90
13251;DHT22;6692;50.710;7.180;2024-03-02T02:14:46;8.30;99.90
13251;DHT22;6692;50.710;7.180;2024-03-02T02:16:41;8.20;99.90
13251;DHT22;6692;50.710;7.180;2024-03-02T02:18:42;8.20;99.90
13251;DHT22;6692;50.710;7.180;2024-03-02T02:20:43;8.20;99.90
13251;DHT22;6692;50.710;7.180;2024-03-02T02:22:53;8.20;99.90
13251;DHT22;6692;50.710;7.180;2024-03-02T02:24:50;8.20;99.90
13251;DHT22;6692;50.710;7.180;2024-03-02T02:26:51;8.10;99.90
13251;DHT22;6692;50.710;7.180;2024-03-02T02:28:51;8.20;99.90
13251;DHT22;6692;50.710;7.180;2024-03-02T02:30:54;8.20;99.90
13251;DHT22;6692;50.710;7.180;2024-03-02T02:32:53;8.20;99.90
13251;DHT22;6692;50.710;7.180;2024-03-02T02:34:54;8.20;99.90
13251;DHT22;6692;50.710;7.180;2024-03-02T02:36:55;8.10;99.90
13251;DHT22;6692;50.710;7.180;2024-03-02T02:38:55;8.10;99.90
13251;DHT22;6692;50.710;7.180;2024-03-02T02:40:56;8.10;99.90
13251;DHT22;6692;50.710;7.180;2024-03-02T02:42:57;8.10;99.90
13251;DHT22;6692;50.710;7.180;2024-03-02T02:44:57;8.10;99.90
13251;DHT22;6692;50.710;7.180;2024-03-02T02:46:58;8.00;99.90
13251;DHT22;6692;50.710;7.180;2024-03-02T02:48:59;8.00;99.90
13251;DHT22;6692;50.710;7.180;2024-03-02T02:51:00;8.00;99.90
13251;DHT22;6692;50.710;7.180;2024-03-02T02:53:02;8.00;99.90
13251;DHT22;6692;50.710;7.180;2024-03-02T02:55:04;8.00;99.90
13251;DHT22;6692;50.710;7.180;2024-03-02T02:57:04;8.00;99.90
13251;DHT22;6692;50.710;7.180;2024-03-02T02:59:05;8.00;99.90
13251;DHT22;6692;50.710;7.180;2024-03-02T03:01:05;8.00;99.90
13251;DHT22;6692;50.710;7.180;2024-03-02T03:03:07;8.00;99.90
13251;DHT22;6692;50.710;7.180;2024-03-02T03:05:09;8.00;99.90
13251;DHT22;6692;50.710;7.180;2024-03-02T03:07:09;8.00;99.90
13251;DHT22;6692;50.710;7.180;2024-03-02T03:09:11;8.00;99.90
13251;DHT22;6692;50.710;7.180;2024-03-02T03:11:11;7.90;99.90
13251;DHT22;6692;50.710;7.180;2024-03-02T03:13:12;7.90;99.90
13251;DHT22;6692;50.710;7.180;2024-03-02T03:15:13;7.90;99.90
13251;DHT22;6692;50.710;7.180;2024-03-02T03:17:14;7.90;99.90
13251;DHT22;6692;50.710;7.180;2024-03-02T03:19:15;7.90;99.90
13251;DHT22;6692;50.710;7.180;2024-03-02T03:21:16;7.90;99.90
13251;DHT22;6692;50.710;7.180;2024-03-02T03:23:17;8.00;99.90
13251;DHT22;6692;50.710;7.180;2024-03-02T03:25:18;8.10;99.90
13251;DHT22;6692;50.710;7.180;2024-03-02T03:27:18;8.10;99.90
13251;DHT22;6692;50.710;7.180;2024-03-02T03:29:20;8.10;99.90
13251;DHT22;6692;50.710;7.180;2024-03-02T03:31:20;8.10;99.90
13251;DHT22;6692;50.710;7.180;2024-03-02T03:33:21;8.10;99.90
13251;DHT22;6692;50.710;7.180;2024-03-02T03:35:22;8.10;99.90
13251;DHT22;6692;50.710;7.180;2024-03-02T03:37:23;8.10;99.90
13251;DHT22;6692;50.710;7.180;2024-03-02T03:39:24;8.10;99.90
13251;DHT22;6692;50.710;7.180;2024-03-02T03:41:24;8.10;99.90
13251;DHT22;6692;50.710;7.180;2024-03-02T03:43:25;8.10;99.90
13251;DHT22;6692;50.710;7.180;2024-03-02T03:45:26;8.10;99.90
13251;DHT22;6692;50.710;7.180;2024-03-02T03:47:26;8.10;99.90
13251;DHT22;6692;50.710;7.180;2024-03-02T03:49:27;8.20;99.90
13251;DHT22;6692;50.710;7.180;2024-03-02T03:51:28;8.30;99.90
13251;DHT22;6692;50.710;7.180;2024-03-02T03:53:28;8.30;99.90
13251;DHT22;6692;50.710;7.180;2024-03-02T03:55:29;8.50;99.90
13251;DHT22;6692;50.710;7.180;2024-03-02T03:57:30;8.60;99.90
13251;DHT22;6692;50.710;7.180;2024-03-02T03:59:31;8.50;99.90
13251;DHT22;6692;50.710;7.180;2024-03-02T04:01:33;8.60;99.90
13251;DHT22;6692;50.710;7.180;2024-03-02T04:03:33;8.60;99.90
13251;DHT22;6692;50.710;7.180;2024-03-02T04:05:35;8.50;99.90
13251;DHT22;6692;50.710;7.180;2024-03-02T04:07:36;8.60;99.90
13251;DHT22;6692;50.710;7.180;2024-03-02T04:09:36;8.50;99.90
13251;DHT22;6692;50.710;7.180;2024-03-02T04:11:37;8.40;99.90
13251;DHT22;6692;50.710;7.180;2024-03-02T04:13:38;8.40;99.90
13251;DHT22;6692;50.710;7.180;2024-03-02T04:15:39;8.30;99.90
13251;DHT22;6692;50.710;7.180;2024-03-02T04:17:40;8.30;99.90
13251;DHT22;6692;50.710;7.180;2024-03-02T04:19:41;8.20;99.90
13251;DHT22;6692;50.710;7.180;2024-03-02T04:21:42;8.20;99.90
13251;DHT22;6692;50.710;7.180;2024-03-02T04:23:42;8.10;99.90
13251;DHT22;6692;50.710;7.180;2024-03-02T04:25:43;8.10;99.90
13251;DHT22;6692;50.710;7.180;2024-03-02T04:27:44;8.10;99.90
13251;DHT22;6692;50.710;7.180;2024-03-02T04:29:45;8.10;99.90
13251;DHT22;6692;50.710;7.180;2024-03-02T04:31:45;8.10;99.90
13251;DHT22;6692;50.710;7.180;2024-03-02T04:33:47;8.00;99.90
13251;DHT22;6692;50.710;7.180;2024-03-02T04:35:47;8.00;99.90
13251;DHT22;6692;50.710;7.180;2024-03-02T04:37:48;7.90;99.90
13251;DHT22;6692;50.710;7.180;2024-03-02T04:39:49;7.90;99.90
13251;DHT22;6692;50.710;7.180;2024-03-02T04:41:50;7.90;99.90
13251;DHT22;6692;50.710;7.180;2024-03-02T04:43:52;7.90;99.90
13251;DHT22;6692;50.710;7.180;2024-03-02T04:45:52;7.80;99.90
13251;DHT22;6692;50.710;7.180;2024-03-02T04:47:54;7.90;99.90
13251;DHT22;6692;50.710;7.180;2024-03-02T04:49:54;7.90;99.90
13251;DHT22;6692;50.710;7.180;2024-03-02T04:51:55;7.90;99.90
13251;DHT22;6692;50.710;7.180;2024-03-02T04:53:56;7.90;99.90
13251;DHT22;6692;50.710;7.180;2024-03-02T04:55:57;8.00;99.90
13251;DHT22;6692;50.710;7.180;2024-03-02T04:57:59;8.10;99.90
13251;DHT22;6692;50.710;7.180;2024-03-02T05:00:00;8.10;99.90
13251;DHT22;6692;50.710;7.180;2024-03-02T05:02:00;8.20;99.90
13251;DHT22;6692;50.710;7.180;2024-03-02T05:04:02;8.30;99.90
13251;DHT22;6692;50.710;7.180;2024-03-02T05:06:04;8.40;99.90
13251;DHT22;6692;50.710;7.180;2024-03-02T05:08:05;8.40;99.90
13251;DHT22;6692;50.710;7.180;2024-03-02T05:10:06;8.40;99.90
13251;DHT22;6692;50.710;7.180;2024-03-02T05:12:07;8.40;99.90
13251;DHT22;6692;50.710;7.180;2024-03-02T05:14:14;8.40;99.90
13251;DHT22;6692;50.710;7.180;2024-03-02T05:16:14;8.40;99.90
13251;DHT22;6692;50.710;7.180;2024-03-02T05:18:15;8.40;99.90
13251;DHT22;6692;50.710;7.180;2024-03-02T05:20:16;8.30;99.90
13251;DHT22;6692;50.710;7.180;2024-03-02T05:22:16;8.40;99.90
13251;DHT22;6692;50.710;7.180;2024-03-02T05:24:17;8.40;99.90
13251;DHT22;6692;50.710;7.180;2024-03-02T05:26:18;8.40;99.90
13251;DHT22;6692;50.710;7.180;2024-03-02T05:28:18;8.40;99.90
13251;DHT22;6692;50.710;7.180;2024-03-02T05:30:19;8.50;99.90
13251;DHT22;6692;50.710;7.180;2024-03-02T05:32:21;8.50;99.90
13251;DHT22;6692;50.710;7.180;2024-03-02T05:34:21;8.50;99.90
13251;DHT22;6692;50.710;7.180;2024-03-02T05:36:22;8.50;99.90
13251;DHT22;6692;50.710;7.180;2024-03-02T05:38:23;8.50;99.90
13251;DHT22;6692;50.710;7.180;2024-03-02T05:40:23;8.50;99.90
13251;DHT22;6692;50.710;7.180;2024-03-02T05:42:24;8.60;99.90
13251;DHT22;6692;50.710;7.180;2024-03-02T05:44:25;8.60;99.90
13251;DHT22;6692;50.710;7.180;2024-03-02T05:46:25;8.60;99.90
13251;DHT22;6692;50.710;7.180;2024-03-02T05:48:26;8.50;99.90
13251;DHT22;6692;50.710;7.180;2024-03-02T05:50:27;8.50;99.90
13251;DHT22;6692;50.710;7.180;2024-03-02T05:52:28;8.50;99.90
13251;DHT22;6692;50.710;7.180;2024-03-02T05:54:29;8.50;99.90
13251;DHT22;6692;50.710;7.180;2024-03-02T05:56:29;8.40;99.90
13251;DHT22;6692;50.710;7.180;2024-03-02T05:58:30;8.40;99.90
13251;DHT22;6692;50.710;7.180;2024-03-02T06:00:50;8.30;99.90
13251;DHT22;6692;50.710;7.180;2024-03-02T06:02:51;8.30;99.90
13251;DHT22;6692;50.710;7.180;2024-03-02T06:04:53;8.30;99.90
13251;DHT22;6692;50.710;7.180;2024-03-02T06:06:52;8.30;99.90
13251;DHT22;6692;50.710;7.180;2024-03-02T06:08:53;8.20;99.90
13251;DHT22;6692;50.710;7.180;2024-03-02T06:10:54;8.20;99.90
13251;DHT22;6692;50.710;7.180;2024-03-02T06:12:55;8.20;99.90
13251;DHT22;6692;50.710;7.180;2024-03-02T06:14:56;8.20;99.90
13251;DHT22;6692;50.710;7.180;2024-03-02T06:16:58;8.20;99.90
13251;DHT22;6692;50.710;7.180;2024-03-02T06:18:59;8.20;99.90
13251;DHT22;6692;50.710;7.180;2024-03-02T06:21:00;8.20;99.90
13251;DHT22;6692;50.710;7.180;2024-03-02T06:23:00;8.20;99.90
13251;DHT22;6692;50.710;7.180;2024-03-02T06:25:01;8.20;99.90
13251;DHT22;6692;50.710;7.180;2024-03-02T06:27:02;8.20;99.90
13251;DHT22;6692;50.710;7.180;2024-03-02T06:29:03;8.20;99.90
13251;DHT22;6692;50.710;7.180;2024-03-02T06:31:04;8.20;99.90
13251;DHT22;6692;50.710;7.180;2024-03-02T06:33:06;8.20;99.90
13251;DHT22;6692;50.710;7.180;2024-03-02T06:35:07;8.10;99.90
13251;DHT22;6692;50.710;7.180;2024-03-02T06:37:07;8.10;99.90
13251;DHT22;6692;50.710;7.180;2024-03-02T06:39:08;8.10;99.90
13251;DHT22;6692;50.710;7.180;2024-03-02T06:41:09;8.10;99.90
13251;DHT22;6692;50.710;7.180;2024-03-02T06:43:09;8.10;99.90
13251;DHT22;6692;50.710;7.180;2024-03-02T06:45:10;8.10;99.90
13251;DHT22;6692;50.710;7.180;2024-03-02T06:47:11;8.10;99.90
13251;DHT22;6692;50.710;7.180;2024-03-02T06:49:12;8.10;99.90
13251;DHT22;6692;50.710;7.180;2024-03-02T06:51:13;8.10;99.90
13251;DHT22;6692;50.710;7.180;2024-03-02T06:53:14;8.10;99.90
13251;DHT22;6692;50.710;7.180;2024-03-02T06:55:14;8.20;99.90
13251;DHT22;6692;50.710;7.180;2024-03-02T06:57:15;8.30;99.90
13251;DHT22;6692;50.710;7.180;2024-03-02T06:59:16;8.30;99.90
13251;DHT22;6692;50.710;7.180;2024-03-02T07:01:16;8.30;99.90
13251;DHT22;6692;50.710;7.180;2024-03-02T07:03:17;8.40;99.90
13251;DHT22;6692;50.710;7.180;2024-03-02T07:05:18;8.40;99.90
13251;DHT22;6692;50.710;7.180;2024-03-02T07:07:18;8.40;99.90
13251;DHT22;6692;50.710;7.180;2024-03-02T07:09:19;8.40;99.90
13251;DHT22;6692;50.710;7.180;2024-03-02T07:11:20;8.40;99.90
13251;DHT22;6692;50.710;7.180;2024-03-02T07:13:21;8.40;99.90
13251;DHT22;6692;50.710;7.180;2024-03-02T07:15:22;8.30;99.90
13251;DHT22;6692;50.710;7.180;2024-03-02T07:17:25;8.30;99.90
13251;DHT22;6692;50.710;7.180;2024-03-02T07:19:26;8.30;99.90
13251;DHT22;6692;50.710;7.180;2024-03-02T07:21:27;8.30;99.90
13251;DHT22;6692;50.710;7.180;2024-03-02T07:23:28;8.30;99.90
13251;DHT22;6692;50.710;7.180;2024-03-02T07:25:29;8.30;99.90
13251;DHT22;6692;50.710;7.180;2024-03-02T07:27:30;8.30;99.90
13251;DHT22;6692;50.710;7.180;2024-03-02T07:29:31;8.40;99.90
13251;DHT22;6692;50.710;7.180;2024-03-02T07:31:31;8.40;99.90
13251;DHT22;6692;50.710;7.180;2024-03-02T07:33:32;8.40;99.90
13251;DHT22;6692;50.710;7.180;2024-03-02T07:35:33;8.40;99.90
13251;DHT22;6692;50.710;7.180;2024-03-02T07:37:33;8.50;99.90
13251;DHT22;6692;50.710;7.180;2024-03-02T07:39:35;8.50;99.90
13251;DHT22;6692;50.710;7.180;2024-03-02T07:41:35;8.50;99.90
13251;DHT22;6692;50.710;7.180;2024-03-02T07:43:36;8.50;99.90
13251;DHT22;6692;50.710;7.180;2024-03-02T07:45:37;8.60;99.90
13251;DHT22;6692;50.710;7.180;2024-03-02T07:47:38;8.60;99.90
13251;DHT22;6692;50.710;7.180;2024-03-02T07:49:38;8.60;99.90
13251;DHT22;6692;50.710;7.180;2024-03-02T07:51:39;8.70;99.90
13251;DHT22;6692;50.710;7.180;2024-03-02T07:53:40;8.70;99.90
13251;DHT22;6692;50.710;7.180;2024-03-02T07:55:40;8.70;99.90
13251;DHT22;6692;50.710;7.180;2024-03-02T07:57:41;8.70;99.90
13251;DHT22;6692;50.710;7.180;2024-03-02T07:59:42;8.70;99.90
13251;DHT22;6692;50.710;7.180;2024-03-02T08:01:43;8.70;99.90
13251;DHT22;6692;50.710;7.180;2024-03-02T08:03:44;8.70;99.90
13251;DHT22;6692;50.710;7.180;2024-03-02T08:05:48;8.70;99.90
13251;DHT22;6692;50.710;7.180;2024-03-02T08:07:49;8.80;99.90
13251;DHT22;6692;50.710;7.180;2024-03-02T08:09:50;8.80;99.90
13251;DHT22;6692;50.710;7.180;2024-03-02T08:11:50;8.90;99.90
13251;DHT22;6692;50.710;7.180;2024-03-02T08:13:51;8.90;99.90
13251;DHT22;6692;50.710;7.180;2024-03-02T08:15:52;8.90;99.90
13251;DHT22;6692;50.710;7.180;2024-03-02T08:17:53;9.00;99.90
13251;DHT22;6692;50.710;7.180;2024-03-02T08:19:53;9.10;99.90
13251;DHT22;6692;50.710;7.180;2024-03-02T08:21:54;9.10;99.90
13251;DHT22;6692;50.710;7.180;2024-03-02T08:23:55;9.20;99.90
13251;DHT22;6692;50.710;7.180;2024-03-02T08:25:56;9.30;99.90
13251;DHT22;6692;50.710;7.180;2024-03-02T08:27:57;9.20;99.90
13251;DHT22;6692;50.710;7.180;2024-03-02T08:29:58;9.30;99.90
13251;DHT22;6692;50.710;7.180;2024-03-02T08:31:58;9.30;99.90
13251;DHT22;6692;50.710;7.180;2024-03-02T08:34:00;9.40;99.90
13251;DHT22;6692;50.710;7.180;2024-03-02T08:36:00;9.40;99.90
13251;DHT22;6692;50.710;7.180;2024-03-02T08:38:02;9.40;99.90
13251;DHT22;6692;50.710;7.180;2024-03-02T08:40:03;9.40;99.90
13251;DHT22;6692;50.710;7.180;2024-03-02T08:42:05;9.50;99.90
13251;DHT22;6692;50.710;7.180;2024-03-02T08:44:06;9.60;99.90
13251;DHT22;6692;50.710;7.180;2024-03-02T08:46:06;9.60;99.90
13251;DHT22;6692;50.710;7.180;2024-03-02T08:48:08;9.70;99.90
13251;DHT22;6692;50.710;7.180;2024-03-02T08:50:08;9.60;99.90
13251;DHT22;6692;50.710;7.180;2024-03-02T08:52:09;9.70;99.90
13251;DHT22;6692;50.710;7.180;2024-03-02T08:54:10;9.80;99.90
13251;DHT22;6692;50.710;7.180;2024-03-02T08:56:10;9.80;99.90
13251;DHT22;6692;50.710;7.180;2024-03-02T08:58:11;9.80;99.90
13251;DHT22;6692;50.710;7.180;2024-03-02T09:00:12;9.80;99.90
13251;DHT22;6692;50.710;7.180;2024-03-02T09:02:13;9.80;99.90
13251;DHT22;6692;50.710;7.180;2024-03-02T09:04:14;9.90;99.90
13251;DHT22;6692;50.710;7.180;2024-03-02T09:06:14;9.90;99.90
13251;DHT22;6692;50.710;7.180;2024-03-02T09:08:15;9.90;99.90
13251;DHT22;6692;50.710;7.180;2024-03-02T09:10:16;9.90;99.90
13251;DHT22;6692;50.710;7.180;2024-03-02T09:12:16;10.00;99.90
13251;DHT22;6692;50.710;7.180;2024-03-02T09:14:18;10.00;99.90
13251;DHT22;6692;50.710;7.180;2024-03-02T09:16:18;10.00;99.90
13251;DHT22;6692;50.710;7.180;2024-03-02T09:18:19;10.00;99.90
13251;DHT22;6692;50.710;7.180;2024-03-02T09:20:20;10.00;99.90
13251;DHT22;6692;50.710;7.180;2024-03-02T09:22:21;10.00;99.90
13251;DHT22;6692;50.710;7.180;2024-03-02T09:24:21;10.00;99.90
13251;DHT22;6692;50.710;7.180;2024-03-02T09:26:22;10.00;99.90
13251;DHT22;6692;50.710;7.180;2024-03-02T09:28:23;10.10;99.90
13251;DHT22;6692;50.710;7.180;2024-03-02T09:30:23;10.10;99.90
13251;DHT22;6692;50.710;7.180;2024-03-02T09:32:24;10.20;99.90
13251;DHT22;6692;50.710;7.180;2024-03-02T09:34:25;10.20;99.90
13251;DHT22;6692;50.710;7.180;2024-03-02T09:36:26;10.40;99.90
13251;DHT22;6692;50.710;7.180;2024-03-02T09:38:27;10.30;99.90
13251;DHT22;6692;50.710;7.180;2024-03-02T09:40:27;10.40;99.90
13251;DHT22;6692;50.710;7.180;2024-03-02T09:42:29;10.50;99.90
13251;DHT22;6692;50.710;7.180;2024-03-02T09:44:30;10.50;99.90
13251;DHT22;6692;50.710;7.180;2024-03-02T09:46:30;10.60;99.90
13251;DHT22;6692;50.710;7.180;2024-03-02T09:48:31;10.60;99.90
13251;DHT22;6692;50.710;7.180;2024-03-02T09:50:32;10.60;99.90
13251;DHT22;6692;50.710;7.180;2024-03-02T09:52:32;10.70;99.90
13251;DHT22;6692;50.710;7.180;2024-03-02T09:54:33;10.70;99.90
13251;DHT22;6692;50.710;7.180;2024-03-02T09:56:34;10.80;99.90
13251;DHT22;6692;50.710;7.180;2024-03-02T09:58:34;10.80;99.90
13251;DHT22;6692;50.710;7.180;2024-03-02T10:00:35;10.90;99.90
13251;DHT22;6692;50.710;7.180;2024-03-02T10:02:36;10.90;99.90
13251;DHT22;6692;50.710;7.180;2024-03-02T10:04:36;10.90;99.90
13251;DHT22;6692;50.710;7.180;2024-03-02T10:06:37;10.90;99.90
13251;DHT22;6692;50.710;7.180;2024-03-02T10:08:43;11.00;99.90
13251;DHT22;6692;50.710;7.180;2024-03-02T10:10:43;11.00;99.90
13251;DHT22;6692;50.710;7.180;2024-03-02T10:12:44;11.00;99.90
13251;DHT22;6692;50.710;7.180;2024-03-02T10:14:45;11.00;99.90
13251;DHT22;6692;50.710;7.180;2024-03-02T10:16:46;11.00;99.90
13251;DHT22;6692;50.710;7.180;2024-03-02T10:18:47;11.00;99.90
13251;DHT22;6692;50.710;7.180;2024-03-02T10:20:48;11.00;99.90
13251;DHT22;6692;50.710;7.180;2024-03-02T10:22:49;11.00;99.90
13251;DHT22;6692;50.710;7.180;2024-03-02T10:24:50;11.00;99.90
13251;DHT22;6692;50.710;7.180;2024-03-02T10:26:51;11.10;99.90
13251;DHT22;6692;50.710;7.180;2024-03-02T10:28:52;11.50;99.90
13251;DHT22;6692;50.710;7.180;2024-03-02T10:30:53;11.40;99.90
13251;DHT22;6692;50.710;7.180;2024-03-02T10:32:54;11.90;99.90
13251;DHT22;6692;50.710;7.180;2024-03-02T10:34:56;11.90;99.90
13251;DHT22;6692;50.710;7.180;2024-03-02T10:36:57;12.40;99.90
13251;DHT22;6692;50.710;7.180;2024-03-02T10:38:58;12.40;99.90
13251;DHT22;6692;50.710;7.180;2024-03-02T10:40:58;12.50;99.90
13251;DHT22;6692;50.710;7.180;2024-03-02T10:43:00;12.50;99.90
13251;DHT22;6692;50.710;7.180;2024-03-02T10:45:00;12.40;99.90
13251;DHT22;6692;50.710;7.180;2024-03-02T10:47:02;12.10;99.90
13251;DHT22;6692;50.710;7.180;2024-03-02T10:49:02;12.10;99.90
13251;DHT22;6692;50.710;7.180;2024-03-02T10:51:03;12.10;99.90
13251;DHT22;6692;50.710;7.180;2024-03-02T10:53:04;12.10;99.90
13251;DHT22;6692;50.710;7.180;2024-03-02T10:55:07;12.10;99.90
13251;DHT22;6692;50.710;7.180;2024-03-02T10:57:08;12.10;99.90
13251;DHT22;6692;50.710;7.180;2024-03-02T10:59:22;12.10;99.90
13251;DHT22;6692;50.710;7.180;2024-03-02T11:01:19;12.10;99.90
13251;DHT22;6692;50.710;7.180;2024-03-02T11:03:19;12.30;99.90
13251;DHT22;6692;50.710;7.180;2024-03-02T11:05:28;12.40;99.90
13251;DHT22;6692;50.710;7.180;2024-03-02T11:07:31;12.40;99.90
13251;DHT22;6692;50.710;7.180;2024-03-02T11:09:34;12.60;99.90
13251;DHT22;6692;50.710;7.180;2024-03-02T11:11:36;12.60;99.90
13251;DHT22;6692;50.710;7.180;2024-03-02T11:13:34;12.60;99.90
13251;DHT22;6692;50.710;7.180;2024-03-02T11:15:35;12.60;99.90
13251;DHT22;6692;50.710;7.180;2024-03-02T11:17:37;12.70;99.90
13251;DHT22;6692;50.710;7.180;2024-03-02T11:19:38;12.80;99.90
13251;DHT22;6692;50.710;7.180;2024-03-02T11:21:39;12.70;99.90
13251;DHT22;6692;50.710;7.180;2024-03-02T11:23:39;12.90;99.90
13251;DHT22;6692;50.710;7.180;2024-03-02T11:25:40;13.10;99.90
13251;DHT22;6692;50.710;7.180;2024-03-02T11:28:00;13.40;99.90
13251;DHT22;6692;50.710;7.180;2024-03-02T11:30:00;13.40;99.90
13251;DHT22;6692;50.710;7.180;2024-03-02T11:32:01;13.60;99.90
13251;DHT22;6692;50.710;7.180;2024-03-02T11:34:16;13.80;99.90
13251;DHT22;6692;50.710;7.180;2024-03-02T11:36:03;13.90;99.90
13251;DHT22;6692;50.710;7.180;2024-03-02T11:38:04;14.00;99.90
13251;DHT22;6692;50.710;7.180;2024-03-02T11:40:06;13.90;99.90
13251;DHT22;6692;50.710;7.180;2024-03-02T11:42:07;13.80;99.90
13251;DHT22;6692;50.710;7.180;2024-03-02T11:44:07;13.80;99.90
13251;DHT22;6692;50.710;7.180;2024-03-02T11:46:08;13.70;99.90
13251;DHT22;6692;50.710;7.180;2024-03-02T11:48:10;13.60;99.90
13251;DHT22;6692;50.710;7.180;2024-03-02T11:50:10;13.40;99.90
13251;DHT22;6692;50.710;7.180;2024-03-02T11:52:12;13.40;99.90
13251;DHT22;6692;50.710;7.180;2024-03-02T11:54:13;13.30;99.90
13251;DHT22;6692;50.710;7.180;2024-03-02T11:56:14;13.30;99.90
13251;DHT22;6692;50.710;7.180;2024-03-02T11:58:15;13.30;99.90
13251;DHT22;6692;50.710;7.180;2024-03-02T12:00:17;13.40;99.90
13251;DHT22;6692;50.710;7.180;2024-03-02T12:02:19;13.60;99.90
13251;DHT22;6692;50.710;7.180;2024-03-02T12:04:21;14.00;99.90
13251;DHT22;6692;50.710;7.180;2024-03-02T12:06:21;14.00;99.90
13251;DHT22;6692;50.710;7.180;2024-03-02T12:08:22;14.10;99.90
13251;DHT22;6692;50.710;7.180;2024-03-02T12:10:23;14.10;99.90
13251;DHT22;6692;50.710;7.180;2024-03-02T12:12:24;14.20;99.90
13251;DHT22;6692;50.710;7.180;2024-03-02T12:14:25;14.10;99.90
13251;DHT22;6692;50.710;7.180;2024-03-02T12:16:26;14.20;99.90
13251;DHT22;6692;50.710;7.180;2024-03-02T12:18:26;14.30;99.90
13251;DHT22;6692;50.710;7.180;2024-03-02T12:20:28;14.40;99.90
13251;DHT22;6692;50.710;7.180;2024-03-02T12:22:28;14.40;99.90
13251;DHT22;6692;50.710;7.180;2024-03-02T12:24:29;14.40;99.90
13251;DHT22;6692;50.710;7.180;2024-03-02T12:26:29;14.50;99.90
13251;DHT22;6692;50.710;7.180;2024-03-02T12:28:30;14.50;99.90
13251;DHT22;6692;50.710;7.180;2024-03-02T12:30:32;14.60;99.90
13251;DHT22;6692;50.710;7.180;2024-03-02T12:32:32;14.60;99.90
13251;DHT22;6692;50.710;7.180;2024-03-02T12:34:32;14.70;99.90
13251;DHT22;6692;50.710;7.180;2024-03-02T12:36:38;14.80;99.90
13251;DHT22;6692;50.710;7.180;2024-03-02T12:38:42;14.90;99.90
13251;DHT22;6692;50.710;7.180;2024-03-02T12:40:38;15.00;99.90
13251;DHT22;6692;50.710;7.180;2024-03-02T12:42:39;14.90;99.90
13251;DHT22;6692;50.710;7.180;2024-03-02T12:44:40;14.90;99.90
13251;DHT22;6692;50.710;7.180;2024-03-02T12:46:40;14.90;99.90
13251;DHT22;6692;50.710;7.180;2024-03-02T12:48:41;14.80;99.90
13251;DHT22;6692;50.710;7.180;2024-03-02T12:50:42;14.80;99.90
13251;DHT22;6692;50.710;7.180;2024-03-02T12:52:43;14.60;99.90
13251;DHT22;6692;50.710;7.180;2024-03-02T12:54:43;14.60;99.90
13251;DHT22;6692;50.710;7.180;2024-03-02T12:56:44;14.60;99.90
13251;DHT22;6692;50.710;7.180;2024-03-02T12:58:45;14.70;99.90
13251;DHT22;6692;50.710;7.180;2024-03-02T13:00:46;14.90;99.90
13251;DHT22;6692;50.710;7.180;2024-03-02T13:02:46;14.90;99.90
13251;DHT22;6692;50.710;7.180;2024-03-02T13:04:53;14.80;99.90
13251;DHT22;6692;50.710;7.180;2024-03-02T13:06:53;14.70;99.90